createdAt,value
2018-10-21T00:02:21.799Z,27.58
2018-10-21T00:04:49.388Z,24.75
2018-10-21T00:07:16.969Z,24.52
2018-10-21T00:09:44.603Z,24.60
2018-10-21T00:12:12.098Z,22.82
2018-10-21T00:14:39.720Z,21.90
2018-10-21T00:17:07.251Z,22.17
2018-10-21T00:19:34.854Z,25.60
2018-10-21T00:22:02.681Z,22.73
2018-10-21T00:24:30.194Z,23.50
2018-10-21T00:26:57.799Z,23.95
2018-10-21T00:29:25.238Z,28.60
2018-10-21T00:31:52.841Z,19.32
2018-10-21T00:34:20.342Z,25.55
2018-10-21T00:36:47.901Z,23.62
2018-10-21T00:39:15.452Z,24.07
2018-10-21T00:41:43.330Z,22.00
2018-10-21T00:44:11.222Z,25.80
2018-10-21T00:46:38.793Z,20.97
2018-10-21T00:49:06.674Z,20.25
2018-10-21T00:51:34.257Z,20.00
2018-10-21T00:54:02.254Z,24.67
2018-10-21T00:56:29.834Z,21.77
2018-10-21T00:58:57.285Z,19.75
2018-10-21T01:01:24.858Z,20.80
2018-10-21T01:03:52.357Z,22.58
2018-10-21T01:06:19.948Z,19.67
2018-10-21T01:08:47.452Z,22.80
2018-10-21T01:11:14.928Z,21.70
2018-10-21T01:13:42.477Z,20.08
2018-10-21T01:16:09.950Z,25.35
2018-10-21T01:18:37.510Z,26.68
2018-10-21T01:21:05.152Z,24.35
2018-10-21T01:23:32.662Z,24.77
2018-10-21T01:26:00.145Z,23.80
2018-10-21T01:28:27.722Z,22.65
2018-10-21T01:30:55.180Z,23.98
2018-10-21T01:33:22.761Z,26.15
2018-10-21T01:35:50.252Z,25.40
2018-10-21T01:38:17.850Z,25.70
2018-10-21T01:40:46.425Z,24.55
2018-10-21T01:43:16.291Z,22.25
2018-10-21T01:45:43.855Z,26.55
2018-10-21T01:48:12.525Z,23.20
2018-10-21T01:50:39.989Z,28.12
2018-10-21T01:53:08.590Z,24.75
2018-10-21T01:55:36.220Z,24.43
2018-10-21T01:58:03.904Z,23.52
2018-10-21T02:00:32.202Z,26.80
2018-10-21T02:03:00.081Z,25.80
2018-10-21T02:05:27.914Z,24.77
2018-10-21T02:07:55.663Z,29.32
2018-10-21T02:10:23.295Z,27.55
2018-10-21T02:12:51.111Z,27.00
2018-10-21T02:15:18.784Z,26.52
2018-10-21T02:17:46.279Z,28.57
2018-10-21T02:20:14.609Z,29.70
2018-10-21T02:22:42.794Z,27.42
2018-10-21T02:25:10.481Z,29.27
2018-10-21T02:27:38.714Z,25.20
2018-10-21T02:30:09.442Z,27.02
2018-10-21T02:32:37.037Z,24.30
2018-10-21T02:35:05.624Z,24.00
2018-10-21T02:37:33.143Z,24.63
2018-10-21T02:40:00.994Z,26.52
2018-10-21T02:42:28.503Z,27.05
2018-10-21T02:44:56.110Z,29.40
2018-10-21T02:47:23.608Z,24.32
2018-10-21T02:49:51.127Z,23.80
2018-10-21T02:52:18.697Z,28.60
2018-10-21T02:54:46.211Z,27.32
2018-10-21T02:57:14.594Z,23.50
2018-10-21T02:59:42.045Z,30.55
2018-10-21T03:02:09.652Z,23.30
2018-10-21T03:04:37.138Z,24.50
2018-10-21T03:07:04.775Z,26.23
2018-10-21T03:09:32.543Z,26.05
2018-10-21T03:12:00.095Z,25.20
2018-10-21T03:14:27.650Z,27.62
2018-10-21T03:16:55.250Z,27.67
2018-10-21T03:19:22.824Z,29.63
2018-10-21T03:21:50.297Z,28.30
2018-10-21T03:24:18.099Z,31.60
2018-10-21T03:26:46.480Z,28.52
2018-10-21T03:29:13.965Z,29.00
2018-10-21T03:31:41.526Z,34.88
2018-10-21T03:34:09.219Z,25.55
2018-10-21T03:36:36.530Z,26.97
2018-10-21T03:39:06.439Z,25.52
2018-10-21T03:41:34.015Z,25.23
2018-10-21T03:44:02.126Z,26.65
2018-10-21T03:46:29.606Z,25.62
2018-10-21T03:48:57.153Z,26.75
2018-10-21T03:51:24.715Z,26.52
2018-10-21T03:53:52.293Z,26.90
2018-10-21T03:56:19.809Z,30.12
2018-10-21T03:58:47.356Z,30.00
2018-10-21T04:01:14.971Z,25.77
2018-10-21T04:03:42.438Z,25.82
2018-10-21T04:06:10.002Z,28.77
2018-10-21T04:08:37.496Z,25.65
2018-10-21T04:11:05.052Z,28.73
2018-10-21T04:13:32.514Z,24.50
2018-10-21T04:16:00.137Z,30.43
2018-10-21T04:18:27.554Z,28.90
2018-10-21T04:20:55.117Z,27.48
2018-10-21T04:23:22.587Z,29.37
2018-10-21T04:25:50.105Z,30.45
2018-10-21T04:28:17.664Z,28.23
2018-10-21T04:30:45.139Z,25.00
2018-10-21T04:33:18.310Z,29.52
2018-10-21T04:35:45.907Z,30.52
2018-10-21T04:38:26.924Z,29.65
2018-10-21T04:40:54.509Z,35.08
2018-10-21T04:43:22.131Z,31.87
2018-10-21T04:45:49.615Z,28.83
2018-10-21T04:48:17.184Z,25.77
2018-10-21T04:50:44.993Z,29.75
2018-10-21T04:53:12.642Z,28.17
2018-10-21T04:55:40.135Z,26.77
2018-10-21T04:58:07.763Z,28.57
2018-10-21T05:00:35.241Z,28.85
2018-10-21T05:03:03.881Z,30.15
2018-10-21T05:05:31.981Z,27.62
2018-10-21T05:07:59.534Z,29.55
2018-10-21T05:10:31.389Z,28.90
2018-10-21T05:12:58.969Z,29.70
2018-10-21T05:15:27.714Z,31.42
2018-10-21T05:17:55.429Z,28.98
2018-10-21T05:20:23.055Z,29.85
2018-10-21T05:22:50.650Z,29.27
2018-10-21T05:25:18.154Z,27.00
2018-10-21T05:27:45.659Z,24.72
2018-10-21T05:30:13.744Z,26.57
2018-10-21T05:32:41.566Z,25.82
2018-10-21T05:35:10.615Z,27.80
2018-10-21T05:37:38.609Z,25.35
2018-10-21T05:40:07.811Z,28.27
2018-10-21T05:42:35.289Z,23.92
2018-10-21T05:45:02.988Z,32.60
2018-10-21T05:47:30.453Z,27.02
2018-10-21T05:49:57.978Z,24.52
2018-10-21T05:52:25.454Z,25.10
2018-10-21T05:54:53.027Z,30.27
2018-10-21T05:57:20.539Z,25.80
2018-10-21T05:59:48.100Z,26.80
2018-10-21T06:02:15.569Z,25.62
2018-10-21T06:04:43.151Z,27.62
2018-10-21T06:07:10.653Z,29.05
2018-10-21T06:09:38.218Z,27.40
2018-10-21T06:12:05.799Z,28.47
2018-10-21T06:14:33.285Z,28.12
2018-10-21T06:17:06.554Z,29.45
2018-10-21T06:19:37.761Z,29.18
2018-10-21T06:22:05.355Z,27.32
2018-10-21T06:24:32.816Z,28.55
2018-10-21T06:27:00.906Z,27.25
2018-10-21T06:29:28.374Z,31.55
2018-10-21T06:31:55.937Z,31.50
2018-10-21T06:34:23.411Z,32.30
2018-10-21T06:36:51.101Z,29.65
2018-10-21T06:39:18.524Z,31.52
2018-10-21T06:41:46.098Z,28.42
2018-10-21T06:44:13.658Z,36.33
2018-10-21T06:46:41.202Z,30.80
2018-10-21T06:49:08.715Z,29.48
2018-10-21T06:51:36.234Z,30.00
2018-10-21T06:54:04.138Z,28.17
2018-10-21T06:56:31.757Z,29.35
2018-10-21T06:58:59.275Z,26.73
2018-10-21T07:01:26.838Z,27.27
2018-10-21T07:03:54.490Z,26.65
2018-10-21T07:06:23.269Z,33.08
2018-10-21T07:08:52.100Z,30.65
2018-10-21T07:11:19.667Z,32.25
2018-10-21T07:13:47.186Z,32.60
2018-10-21T07:16:15.041Z,35.03
2018-10-21T07:18:43.471Z,39.80
2018-10-21T07:21:10.980Z,45.35
2018-10-21T07:23:38.902Z,44.25
2018-10-21T07:26:06.417Z,42.38
2018-10-21T07:28:34.142Z,44.18
2018-10-21T07:31:01.726Z,46.48
2018-10-21T07:33:29.238Z,45.05
2018-10-21T07:35:57.036Z,44.50
2018-10-21T07:38:24.582Z,46.58
2018-10-21T07:40:52.168Z,47.05
2018-10-21T07:43:19.722Z,57.50
2018-10-21T07:45:47.340Z,53.60
2018-10-21T07:48:14.861Z,54.10
2018-10-21T07:50:42.445Z,52.75
2018-10-21T07:53:09.999Z,48.42
2018-10-21T07:55:37.569Z,49.30
2018-10-21T07:58:05.281Z,49.03
2018-10-21T08:00:32.802Z,45.05
2018-10-21T08:03:00.337Z,45.48
2018-10-21T08:05:39.376Z,42.75
2018-10-21T08:08:15.148Z,46.05
2018-10-21T08:10:42.813Z,49.23
2018-10-21T08:13:11.335Z,47.55
2018-10-21T08:15:39.481Z,48.05
2018-10-21T08:18:07.891Z,48.92
2018-10-21T08:20:35.599Z,50.65
2018-10-21T08:23:03.221Z,43.10
2018-10-21T08:25:30.783Z,48.25
2018-10-21T08:27:58.374Z,46.80
2018-10-21T08:30:25.879Z,53.42
2018-10-21T08:32:53.487Z,52.88
2018-10-21T08:35:21.513Z,54.50
2018-10-21T08:37:49.131Z,48.80
2018-10-21T08:40:16.692Z,49.15
2018-10-21T08:42:44.300Z,49.98
2018-10-21T08:45:11.871Z,50.60
2018-10-21T08:47:39.841Z,46.58
2018-10-21T08:50:09.335Z,44.67
2018-10-21T08:52:37.083Z,42.58
2018-10-21T08:55:05.601Z,46.60
2018-10-21T08:57:33.100Z,39.15
2018-10-21T09:00:00.864Z,41.75
2018-10-21T09:02:28.463Z,39.08
2018-10-21T09:04:55.986Z,44.30
2018-10-21T09:07:23.558Z,43.52
2018-10-21T09:09:51.225Z,38.20
2018-10-21T09:12:18.704Z,37.95
2018-10-21T09:14:47.295Z,38.95
2018-10-21T09:17:14.798Z,37.90
2018-10-21T09:19:42.412Z,38.35
2018-10-21T09:22:10.049Z,31.82
2018-10-21T09:24:37.636Z,34.92
2018-10-21T09:27:05.507Z,35.90
2018-10-21T09:29:34.091Z,30.50
2018-10-21T09:32:02.159Z,26.73
2018-10-21T09:34:29.848Z,24.47
2018-10-21T09:36:57.500Z,26.62
2018-10-21T09:39:25.095Z,24.20
2018-10-21T09:41:52.645Z,27.13
2018-10-21T09:44:20.362Z,27.55
2018-10-21T09:46:47.986Z,33.00
2018-10-21T09:49:15.668Z,27.95
2018-10-21T09:51:43.269Z,26.75
2018-10-21T09:54:10.857Z,26.95
2018-10-21T09:56:38.486Z,26.37
2018-10-21T09:59:06.837Z,26.85
2018-10-21T10:02:37.860Z,22.35
2018-10-21T10:05:06.134Z,20.05
2018-10-21T10:07:33.626Z,22.20
2018-10-21T10:10:01.459Z,20.27
2018-10-21T10:12:29.018Z,25.40
2018-10-21T10:14:56.617Z,21.95
2018-10-21T10:17:24.299Z,19.65
2018-10-21T10:19:51.861Z,21.15
2018-10-21T10:22:19.491Z,19.62
2018-10-21T10:24:47.070Z,18.40
2018-10-21T10:27:14.698Z,19.67
2018-10-21T10:29:42.247Z,19.05
2018-10-21T10:32:09.965Z,18.35
2018-10-21T10:34:37.562Z,17.65
2018-10-21T10:37:05.303Z,22.17
2018-10-21T10:39:32.841Z,19.85
2018-10-21T10:42:00.599Z,18.35
2018-10-21T10:44:28.132Z,17.75
2018-10-21T10:46:55.818Z,17.57
2018-10-21T10:49:23.460Z,16.23
2018-10-21T10:51:51.022Z,17.57
2018-10-21T10:54:18.579Z,17.87
2018-10-21T10:56:46.115Z,14.90
2018-10-21T10:59:13.734Z,14.80
2018-10-21T11:01:41.320Z,14.20
2018-10-21T11:04:09.006Z,16.20
2018-10-21T11:06:36.581Z,15.05
2018-10-21T11:09:07.023Z,12.85
2018-10-21T11:11:34.585Z,11.97
2018-10-21T11:14:02.211Z,11.57
2018-10-21T11:16:29.723Z,10.23
2018-10-21T11:18:58.414Z,11.20
2018-10-21T11:21:25.949Z,12.45
2018-10-21T11:23:53.572Z,8.85
2018-10-21T11:26:21.111Z,10.28
2018-10-21T11:28:48.721Z,8.93
2018-10-21T11:31:16.267Z,10.30
2018-10-21T11:33:43.857Z,10.78
2018-10-21T11:36:11.405Z,9.55
2018-10-21T11:38:39.049Z,10.60
2018-10-21T11:41:06.679Z,9.98
2018-10-21T11:43:34.308Z,11.40
2018-10-21T11:46:02.053Z,10.93
2018-10-21T11:48:29.722Z,10.70
2018-10-21T11:50:57.254Z,8.85
2018-10-21T11:53:24.812Z,9.90
2018-10-21T11:55:52.381Z,9.90
2018-10-21T11:58:19.902Z,19.82
2018-10-21T12:00:47.595Z,10.78
2018-10-21T12:03:15.185Z,10.25
2018-10-21T12:05:43.126Z,9.00
2018-10-21T12:08:11.086Z,9.30
2018-10-21T12:10:38.671Z,9.08
2018-10-21T12:13:06.498Z,9.28
2018-10-21T12:15:34.685Z,7.95
2018-10-21T12:18:02.340Z,9.23
2018-10-21T12:20:29.853Z,8.60
2018-10-21T12:22:57.626Z,8.23
2018-10-21T12:25:25.141Z,8.03
2018-10-21T12:27:52.753Z,12.80
2018-10-21T12:30:20.330Z,8.20
2018-10-21T12:32:47.973Z,8.58
2018-10-21T12:35:15.505Z,8.80
2018-10-21T12:37:43.050Z,10.00
2018-10-21T12:40:10.640Z,11.80
2018-10-21T12:42:38.522Z,7.35
2018-10-21T12:45:08.103Z,12.30
2018-10-21T12:47:35.744Z,8.25
2018-10-21T12:50:03.579Z,6.87
2018-10-21T12:52:31.166Z,7.35
2018-10-21T12:54:58.730Z,7.20
2018-10-21T12:57:26.257Z,7.08
2018-10-21T12:59:53.870Z,9.28
2018-10-21T13:02:21.437Z,6.17
2018-10-21T13:04:48.961Z,6.97
2018-10-21T13:07:16.630Z,5.95
2018-10-21T13:09:44.156Z,22.58
2018-10-21T13:12:11.699Z,5.80
2018-10-21T13:14:40.513Z,8.08
2018-10-21T13:17:08.925Z,6.45
2018-10-21T13:19:36.536Z,5.97
2018-10-21T13:22:04.180Z,8.43
2018-10-21T13:24:39.221Z,5.85
2018-10-21T13:27:08.508Z,5.92
2018-10-21T13:29:36.637Z,5.53
2018-10-21T13:32:04.996Z,5.37
2018-10-21T13:34:33.200Z,5.25
2018-10-21T13:37:01.703Z,5.05
2018-10-21T13:39:30.274Z,5.00
2018-10-21T13:41:58.286Z,6.30
2018-10-21T13:44:25.884Z,5.95
2018-10-21T13:46:53.533Z,4.67
2018-10-21T13:49:21.907Z,4.45
2018-10-21T13:51:49.851Z,4.62
2018-10-21T13:54:17.574Z,4.10
2018-10-21T13:56:46.159Z,4.53
2018-10-21T13:59:14.319Z,5.00
2018-10-21T14:01:42.005Z,5.22
2018-10-21T14:04:10.041Z,4.37
2018-10-21T14:06:37.842Z,5.40
2018-10-21T14:09:08.760Z,5.00
2018-10-21T14:11:37.492Z,5.25
2018-10-21T14:14:06.144Z,5.15
2018-10-21T14:16:34.024Z,4.50
2018-10-21T14:19:01.645Z,4.25
2018-10-21T14:21:29.491Z,6.33
2018-10-21T14:23:57.198Z,3.80
2018-10-21T14:26:24.798Z,4.53
2018-10-21T14:28:52.515Z,4.65
2018-10-21T14:31:20.120Z,4.72
2018-10-21T14:33:47.763Z,4.12
2018-10-21T14:36:15.382Z,5.15
2018-10-21T14:38:42.953Z,7.17
2018-10-21T14:41:10.512Z,6.97
2018-10-21T14:43:38.283Z,5.83
2018-10-21T14:46:06.161Z,5.97
2018-10-21T14:48:33.738Z,4.85
2018-10-21T14:51:01.517Z,8.93
2018-10-21T14:53:29.201Z,6.10
2018-10-21T14:55:56.820Z,4.90
2018-10-21T14:58:24.399Z,23.12
2018-10-21T15:00:51.910Z,6.15
2018-10-21T15:03:19.481Z,3.92
2018-10-21T15:05:47.116Z,14.87
2018-10-21T15:08:14.841Z,7.08
2018-10-21T15:10:42.430Z,4.08
2018-10-21T15:13:09.984Z,3.77
2018-10-21T15:15:37.693Z,4.05
2018-10-21T15:18:11.358Z,5.10
2018-10-21T15:20:38.932Z,8.23
2018-10-21T15:23:06.586Z,5.08
2018-10-21T15:25:34.097Z,4.12
2018-10-21T15:28:01.652Z,3.95
2018-10-21T15:33:51.818Z,3.95
2018-10-21T15:36:20.032Z,7.62
2018-10-21T15:38:49.953Z,3.72
2018-10-21T15:41:17.549Z,4.85
2018-10-21T15:43:45.202Z,3.72
2018-10-21T15:46:12.862Z,14.90
2018-10-21T15:48:40.363Z,10.55
2018-10-21T15:51:07.997Z,7.53
2018-10-21T15:53:36.157Z,10.30
2018-10-21T15:56:04.911Z,7.40
2018-10-21T15:58:39.743Z,7.47
2018-10-21T16:02:33.542Z,4.08
2018-10-21T16:05:01.371Z,3.08
2018-10-21T16:07:28.991Z,2.58
2018-10-21T16:09:56.629Z,6.60
2018-10-21T16:12:24.258Z,3.65
2018-10-21T16:14:51.830Z,3.33
2018-10-21T16:17:19.472Z,3.80
2018-10-21T16:19:47.103Z,5.67
2018-10-21T16:22:14.634Z,3.67
2018-10-21T16:24:42.172Z,3.58
2018-10-21T16:27:09.800Z,3.87
2018-10-21T16:29:37.374Z,4.78
2018-10-21T16:32:05.357Z,4.87
2018-10-21T16:34:32.816Z,4.20
2018-10-21T16:37:00.435Z,3.33
2018-10-21T16:39:27.938Z,3.83
2018-10-21T16:41:55.556Z,6.25
2018-10-21T16:44:23.258Z,5.65
2018-10-21T16:46:50.831Z,4.30
2018-10-21T16:49:18.414Z,3.35
2018-10-21T16:51:46.013Z,3.35
2018-10-21T16:54:13.702Z,3.10
2018-10-21T16:56:41.150Z,3.90
2018-10-21T16:59:08.829Z,4.12
2018-10-21T17:01:36.415Z,3.70
2018-10-21T17:04:04.173Z,3.30
2018-10-21T17:06:31.752Z,4.35
2018-10-21T17:08:59.393Z,4.60
2018-10-21T17:11:26.829Z,3.75
2018-10-21T17:13:54.517Z,5.72
2018-10-21T17:16:22.126Z,4.90
2018-10-21T17:18:49.770Z,4.97
2018-10-21T17:21:17.436Z,6.72
2018-10-21T17:23:45.115Z,3.90
2018-10-21T17:26:12.677Z,5.05
2018-10-21T17:28:40.261Z,4.15
2018-10-21T17:31:07.937Z,4.83
2018-10-21T17:33:35.457Z,3.98
2018-10-21T17:36:03.134Z,3.33
2018-10-21T17:38:30.671Z,4.17
2018-10-21T17:40:58.354Z,4.25
2018-10-21T17:43:26.021Z,6.87
2018-10-21T17:45:53.662Z,3.50
2018-10-21T17:48:21.236Z,3.42
2018-10-21T17:50:48.896Z,5.05
2018-10-21T17:53:16.425Z,3.58
2018-10-21T17:55:44.163Z,7.85
2018-10-21T17:58:11.925Z,3.90
2018-10-21T18:00:39.434Z,3.35
2018-10-21T18:03:07.081Z,4.35
2018-10-21T18:05:34.693Z,4.33
2018-10-21T18:08:08.676Z,3.00
2018-10-21T18:10:39.677Z,3.62
2018-10-21T18:13:22.942Z,4.17
2018-10-21T18:15:54.472Z,5.53
2018-10-21T18:18:27.441Z,4.25
2018-10-21T18:20:55.138Z,4.08
2018-10-21T18:23:22.842Z,4.10
2018-10-21T18:25:50.517Z,4.33
2018-10-21T18:28:18.194Z,4.83
2018-10-21T18:30:45.752Z,4.30
2018-10-21T18:33:17.526Z,4.05
2018-10-21T18:35:55.069Z,4.37
2018-10-21T18:38:25.916Z,4.05
2018-10-21T18:40:54.323Z,4.20
2018-10-21T18:43:22.021Z,4.50
2018-10-21T18:45:49.582Z,3.90
2018-10-21T18:48:17.274Z,4.37
2018-10-21T18:50:44.847Z,5.75
2018-10-21T18:53:12.381Z,6.90
2018-10-21T18:55:40.037Z,4.80
2018-10-21T18:58:07.729Z,4.55
2018-10-21T19:00:35.283Z,4.90
2018-10-21T19:03:02.888Z,4.35
2018-10-21T19:05:30.569Z,6.40
2018-10-21T19:07:58.127Z,4.80
2018-10-21T19:10:25.856Z,4.35
2018-10-21T19:13:00.046Z,4.15
2018-10-21T19:15:21.024Z,4.47
2018-10-21T19:17:48.557Z,4.67
2018-10-21T19:20:16.691Z,11.00
2018-10-21T19:22:44.283Z,4.97
2018-10-21T19:25:13.470Z,5.10
2018-10-21T19:27:41.583Z,4.90
2018-10-21T19:30:10.246Z,4.90
2018-10-21T19:32:37.968Z,5.85
2018-10-21T19:35:06.219Z,5.92
2018-10-21T19:37:33.863Z,5.50
2018-10-21T19:40:01.452Z,5.37
2018-10-21T19:42:29.073Z,4.97
2018-10-21T19:44:56.789Z,5.60
2018-10-21T19:47:24.439Z,6.47
2018-10-21T19:49:51.994Z,4.87
2018-10-21T19:52:19.620Z,5.40
2018-10-21T19:54:47.142Z,5.60
2018-10-21T19:57:14.773Z,5.92
2018-10-21T19:59:42.293Z,5.60
2018-10-21T20:02:09.942Z,5.65
2018-10-21T20:04:37.502Z,5.87
2018-10-21T20:07:05.343Z,5.90
2018-10-21T20:09:32.815Z,7.85
2018-10-21T20:12:00.413Z,7.50
2018-10-21T20:14:28.036Z,5.47
2018-10-21T20:16:55.576Z,6.03
2018-10-21T20:19:23.231Z,6.70
2018-10-21T20:21:50.767Z,7.33
2018-10-21T20:24:18.397Z,6.53
2018-10-21T20:26:45.975Z,7.67
2018-10-21T20:29:13.633Z,7.05
2018-10-21T20:31:49.577Z,6.50
2018-10-21T20:34:17.312Z,6.25
2018-10-21T20:36:44.794Z,6.65
2018-10-21T20:39:12.405Z,7.00
2018-10-21T20:41:39.951Z,5.65
2018-10-21T20:44:07.742Z,6.28
2018-10-21T20:46:35.444Z,6.35
2018-10-21T20:49:03.051Z,6.17
2018-10-21T20:52:00.239Z,6.37
2018-10-21T20:54:56.875Z,8.45
2018-10-21T20:57:37.390Z,6.62
2018-10-21T21:00:10.881Z,6.10
2018-10-21T21:02:43.045Z,7.53
2018-10-21T21:05:10.680Z,6.53
2018-10-21T21:07:38.308Z,7.22
2018-10-21T21:10:06.489Z,8.50
2018-10-21T21:12:34.117Z,6.50
2018-10-21T21:15:02.047Z,17.32
2018-10-21T21:17:29.618Z,6.55
2018-10-21T21:19:57.139Z,8.60
2018-10-21T21:22:24.770Z,8.40
2018-10-21T21:24:52.278Z,7.33
2018-10-21T21:27:19.905Z,8.83
2018-10-21T21:29:47.490Z,7.95
2018-10-21T21:32:15.094Z,7.70
2018-10-21T21:34:42.591Z,9.00
2018-10-21T21:37:10.187Z,10.40
2018-10-21T21:39:37.774Z,7.30
2018-10-21T21:42:05.406Z,8.13
2018-10-21T21:44:32.973Z,8.70
2018-10-21T21:47:00.978Z,9.23
2018-10-21T21:49:28.561Z,11.28
2018-10-21T21:51:56.162Z,10.15
2018-10-21T21:54:23.595Z,9.35
2018-10-21T21:56:51.176Z,9.93
2018-10-21T21:59:18.736Z,9.10
2018-10-21T22:01:46.238Z,10.72
2018-10-21T22:04:13.863Z,11.08
2018-10-21T22:06:41.374Z,11.12
2018-10-21T22:09:10.691Z,9.30
2018-10-21T22:11:38.581Z,9.88
2018-10-21T22:14:06.402Z,8.65
2018-10-21T22:16:33.896Z,10.08
2018-10-21T22:19:01.490Z,10.13
2018-10-21T22:21:29.006Z,12.63
2018-10-21T22:23:56.568Z,8.73
2018-10-21T22:26:24.072Z,9.28
2018-10-21T22:28:51.669Z,11.35
2018-10-21T22:31:19.174Z,11.10
2018-10-21T22:33:46.726Z,9.05
2018-10-21T22:36:14.298Z,8.58
2018-10-21T22:38:41.780Z,8.78
2018-10-21T22:41:09.263Z,8.95
2018-10-21T22:43:36.919Z,8.28
2018-10-21T22:46:04.708Z,7.53
2018-10-21T22:48:32.232Z,10.60
2018-10-21T22:50:59.766Z,8.25
2018-10-21T22:53:27.218Z,9.15
2018-10-21T22:55:54.790Z,9.08
2018-10-21T22:58:22.301Z,10.58
2018-10-21T23:00:49.855Z,8.68
2018-10-21T23:03:17.334Z,8.30
2018-10-21T23:05:44.918Z,9.20
2018-10-21T23:08:13.119Z,9.80
2018-10-21T23:10:40.680Z,9.05
2018-10-21T23:13:08.160Z,9.33
2018-10-21T23:15:35.726Z,9.08
2018-10-21T23:18:03.211Z,8.55
2018-10-21T23:20:30.818Z,8.50
2018-10-21T23:22:58.351Z,9.03
2018-10-21T23:25:25.809Z,11.40
2018-10-21T23:27:53.383Z,9.70
2018-10-21T23:30:20.917Z,12.28
2018-10-21T23:32:48.396Z,8.85
2018-10-21T23:35:15.868Z,11.05
2018-10-21T23:37:43.409Z,11.83
2018-10-21T23:40:10.906Z,10.78
2018-10-21T23:42:38.450Z,8.98
2018-10-21T23:45:06.057Z,8.53
2018-10-21T23:47:33.633Z,10.32
2018-10-21T23:50:01.319Z,10.10
2018-10-21T23:52:28.869Z,9.45
2018-10-21T23:54:56.318Z,9.75
2018-10-21T23:57:23.769Z,10.43
2018-10-21T23:59:51.314Z,10.68
